createdAt,value
2017-11-03T00:00:29.550Z,17.40
2017-11-03T00:02:57.846Z,16.07
2017-11-03T00:05:26.178Z,18.60
2017-11-03T00:07:54.564Z,16.20
2017-11-03T00:10:23.107Z,18.53
2017-11-03T00:12:52.187Z,18.20
2017-11-03T00:15:20.588Z,14.30
2017-11-03T00:17:49.026Z,20.90
2017-11-03T00:20:17.645Z,11.43
2017-11-03T00:22:45.983Z,11.53
2017-11-03T00:25:14.292Z,15.03
2017-11-03T00:27:43.012Z,14.90
2017-11-03T00:30:11.341Z,9.70
2017-11-03T00:32:39.673Z,14.10
2017-11-03T00:35:07.998Z,15.50
2017-11-03T00:37:36.749Z,14.60
2017-11-03T00:40:05.049Z,9.80
2017-11-03T00:42:33.345Z,11.30
2017-11-03T00:45:01.688Z,15.33
2017-11-03T00:47:29.998Z,17.40
2017-11-03T00:49:59.014Z,11.87
2017-11-03T00:52:27.747Z,14.33
2017-11-03T00:54:56.049Z,10.07
2017-11-03T00:57:24.592Z,11.23
2017-11-03T00:59:52.926Z,13.33
2017-11-03T01:02:21.922Z,12.77
2017-11-03T01:04:51.752Z,19.30
2017-11-03T01:07:20.146Z,11.10
2017-11-03T01:09:48.479Z,19.80
2017-11-03T01:12:16.777Z,9.93
2017-11-03T01:14:45.146Z,16.37
2017-11-03T01:17:13.727Z,8.47
2017-11-03T01:19:42.455Z,13.40
2017-11-03T01:22:10.807Z,14.30
2017-11-03T01:24:39.110Z,10.73
2017-11-03T01:27:07.439Z,11.00
2017-11-03T01:29:36.178Z,10.30
2017-11-03T01:32:04.507Z,10.93
2017-11-03T01:34:33.217Z,13.13
2017-11-03T01:37:01.529Z,11.80
2017-11-03T01:39:29.850Z,10.60
2017-11-03T01:41:58.185Z,9.63
2017-11-03T01:44:26.818Z,14.73
2017-11-03T01:46:55.805Z,9.67
2017-11-03T01:49:24.491Z,8.90
2017-11-03T01:51:53.221Z,16.23
2017-11-03T01:54:21.558Z,13.23
2017-11-03T01:56:49.873Z,9.10
2017-11-03T01:59:18.224Z,16.03
2017-11-03T02:01:46.536Z,8.70
2017-11-03T02:04:14.834Z,8.27
2017-11-03T02:06:43.187Z,7.73
2017-11-03T02:09:11.524Z,9.77
2017-11-03T02:11:40.629Z,8.87
2017-11-03T02:14:08.945Z,8.87
2017-11-03T02:16:37.260Z,12.90
2017-11-03T02:19:05.962Z,10.40
2017-11-03T02:21:34.780Z,12.07
2017-11-03T02:24:03.099Z,13.90
2017-11-03T02:26:31.401Z,9.70
2017-11-03T02:28:59.857Z,13.07
2017-11-03T02:31:28.159Z,8.80
2017-11-03T02:33:56.490Z,10.33
2017-11-03T02:36:24.836Z,8.23
2017-11-03T02:38:53.152Z,10.13
2017-11-03T02:41:21.420Z,9.00
2017-11-03T02:43:49.701Z,11.40
2017-11-03T02:46:17.941Z,10.23
2017-11-03T02:48:46.591Z,21.23
2017-11-03T02:51:14.953Z,11.10
2017-11-03T02:53:43.251Z,8.60
2017-11-03T02:56:11.501Z,14.93
2017-11-03T02:58:39.820Z,9.00
2017-11-03T03:01:08.066Z,7.00
2017-11-03T03:03:36.563Z,12.60
2017-11-03T03:06:04.869Z,10.40
2017-11-03T03:08:33.513Z,13.17
2017-11-03T03:11:01.784Z,11.67
2017-11-03T03:13:30.062Z,9.37
2017-11-03T03:15:58.284Z,7.60
2017-11-03T03:18:26.564Z,7.17
2017-11-03T03:20:55.133Z,10.67
2017-11-03T03:23:23.768Z,18.03
2017-11-03T03:25:52.052Z,15.13
2017-11-03T03:28:20.334Z,13.43
2017-11-03T03:30:48.574Z,10.17
2017-11-03T03:33:16.838Z,10.03
2017-11-03T03:35:45.116Z,8.27
2017-11-03T03:38:13.370Z,9.67
2017-11-03T03:40:42.008Z,9.73
2017-11-03T03:43:10.317Z,9.70
2017-11-03T03:45:38.585Z,13.33
2017-11-03T03:48:06.840Z,7.87
2017-11-03T03:50:35.141Z,11.60
2017-11-03T03:53:03.395Z,9.73
2017-11-03T03:55:31.905Z,13.30
2017-11-03T03:58:00.156Z,9.53
2017-11-03T04:00:28.415Z,8.37
2017-11-03T04:02:56.673Z,15.07
2017-11-03T04:05:24.926Z,14.50
2017-11-03T04:07:53.172Z,12.97
2017-11-03T04:10:21.539Z,8.03
2017-11-03T04:12:49.788Z,8.23
2017-11-03T04:15:18.020Z,8.60
2017-11-03T04:17:46.671Z,17.30
2017-11-03T04:20:14.924Z,12.30
2017-11-03T04:22:43.189Z,15.97
2017-11-03T04:25:11.449Z,10.83
2017-11-03T04:27:39.757Z,16.50
2017-11-03T04:30:08.028Z,14.23
2017-11-03T04:32:36.333Z,10.57
2017-11-03T04:35:04.611Z,13.60
2017-11-03T04:37:32.921Z,9.57
2017-11-03T04:40:01.163Z,8.03
2017-11-03T04:42:29.424Z,10.47
2017-11-03T04:44:57.673Z,13.43
2017-11-03T04:47:25.932Z,9.83
2017-11-03T04:49:54.237Z,14.30
2017-11-03T04:52:22.478Z,11.53
2017-11-03T04:54:51.113Z,15.27
2017-11-03T04:57:19.407Z,11.57
2017-11-03T04:59:47.649Z,12.97
2017-11-03T05:02:15.929Z,14.20
2017-11-03T05:04:44.216Z,11.47
2017-11-03T05:07:13.137Z,14.23
2017-11-03T05:09:41.448Z,10.67
2017-11-03T05:12:09.717Z,14.40
2017-11-03T05:14:37.976Z,14.97
2017-11-03T05:17:06.539Z,12.50
2017-11-03T05:19:34.795Z,16.20
2017-11-03T05:22:03.439Z,28.23
2017-11-03T05:24:31.671Z,17.37
2017-11-03T05:26:59.954Z,13.33
2017-11-03T05:29:32.990Z,16.27
2017-11-03T05:32:01.276Z,16.20
2017-11-03T05:34:29.539Z,17.93
2017-11-03T05:36:57.776Z,13.50
2017-11-03T05:39:26.091Z,15.00
2017-11-03T05:41:54.368Z,19.10
2017-11-03T05:44:22.607Z,15.50
2017-11-03T05:46:50.858Z,12.40
2017-11-03T05:49:19.134Z,18.77
2017-11-03T05:51:47.417Z,17.43
2017-11-03T05:54:15.685Z,20.10
2017-11-03T05:56:43.937Z,21.43
2017-11-03T05:59:12.239Z,15.90
2017-11-03T06:01:40.480Z,17.30
2017-11-03T06:04:08.725Z,19.00
2017-11-03T06:06:38.514Z,11.90
2017-11-03T06:09:06.774Z,14.07
2017-11-03T06:11:35.035Z,21.63
2017-11-03T06:14:03.536Z,14.83
2017-11-03T06:16:32.021Z,9.97
2017-11-03T06:19:00.268Z,12.90
2017-11-03T06:21:28.553Z,15.67
2017-11-03T06:23:56.821Z,14.50
2017-11-03T06:26:25.093Z,11.87
2017-11-03T06:28:53.374Z,19.93
2017-11-03T06:31:21.649Z,12.60
2017-11-03T06:33:50.885Z,17.60
2017-11-03T06:36:19.469Z,11.30
2017-11-03T06:38:47.757Z,16.00
2017-11-03T06:41:16.014Z,11.40
2017-11-03T06:43:44.305Z,15.23
2017-11-03T06:46:12.801Z,13.03
2017-11-03T06:48:41.072Z,10.27
2017-11-03T06:51:10.016Z,14.50
2017-11-03T06:53:39.529Z,19.67
2017-11-03T06:56:07.917Z,20.37
2017-11-03T06:58:36.196Z,19.60
2017-11-03T07:01:04.450Z,15.23
2017-11-03T07:03:32.712Z,15.77
2017-11-03T07:06:01.009Z,17.20
2017-11-03T07:08:29.277Z,17.03
2017-11-03T07:10:57.528Z,31.03
2017-11-03T07:13:26.576Z,19.07
2017-11-03T07:15:54.852Z,14.70
2017-11-03T07:18:23.868Z,16.03
2017-11-03T07:20:52.264Z,22.93
2017-11-03T07:23:20.508Z,17.97
2017-11-03T07:25:49.183Z,21.27
2017-11-03T07:28:17.428Z,17.07
2017-11-03T07:30:45.706Z,27.10
2017-11-03T07:33:13.954Z,21.80
2017-11-03T07:35:42.218Z,18.60
2017-11-03T07:38:10.901Z,13.03
2017-11-03T07:40:39.777Z,21.50
2017-11-03T07:43:08.116Z,21.70
2017-11-03T07:45:37.233Z,28.07
2017-11-03T07:48:05.512Z,27.67
2017-11-03T07:50:33.749Z,20.73
2017-11-03T07:53:02.016Z,23.67
2017-11-03T07:55:30.303Z,24.90
2017-11-03T07:57:58.560Z,22.47
2017-11-03T08:00:27.507Z,22.37
2017-11-03T08:02:55.789Z,20.03
2017-11-03T08:05:24.041Z,28.43
2017-11-03T08:07:52.319Z,17.07
2017-11-03T08:10:20.601Z,21.70
2017-11-03T08:12:49.887Z,20.57
2017-11-03T08:15:18.148Z,21.50
2017-11-03T08:17:46.755Z,25.43
2017-11-03T08:20:15.008Z,18.27
2017-11-03T08:22:43.415Z,23.13
2017-11-03T08:25:11.683Z,19.80
2017-11-03T08:27:39.936Z,15.33
2017-11-03T08:30:08.198Z,14.30
2017-11-03T08:32:36.560Z,12.93
2017-11-03T08:35:04.830Z,22.60
2017-11-03T08:37:33.458Z,23.60
2017-11-03T08:40:01.819Z,14.90
2017-11-03T08:42:30.065Z,16.73
2017-11-03T08:44:58.804Z,17.33
2017-11-03T08:47:27.093Z,17.10
2017-11-03T08:49:55.357Z,17.53
2017-11-03T08:52:23.633Z,16.07
2017-11-03T08:54:51.906Z,13.63
2017-11-03T08:57:20.409Z,18.03
2017-11-03T08:59:48.674Z,13.70
2017-11-03T09:02:16.906Z,14.97
2017-11-03T09:04:45.201Z,14.03
2017-11-03T09:07:13.699Z,16.77
2017-11-03T09:09:41.973Z,14.67
2017-11-03T09:12:11.604Z,14.10
2017-11-03T09:14:40.297Z,17.40
2017-11-03T09:17:08.536Z,12.87
2017-11-03T09:19:38.741Z,11.10
2017-11-03T09:22:07.130Z,19.17
2017-11-03T09:24:35.810Z,16.20
2017-11-03T09:27:04.070Z,14.67
2017-11-03T09:29:35.478Z,12.50
2017-11-03T09:32:03.776Z,17.80
2017-11-03T09:34:32.516Z,20.70
2017-11-03T09:37:00.858Z,19.63
2017-11-03T09:39:29.202Z,10.60
2017-11-03T09:41:57.883Z,16.33
2017-11-03T09:44:26.237Z,14.70
2017-11-03T09:46:54.507Z,16.50
2017-11-03T09:49:23.082Z,15.00
2017-11-03T09:51:51.342Z,8.90
2017-11-03T09:54:19.584Z,10.23
2017-11-03T09:56:47.847Z,12.13
2017-11-03T09:59:16.209Z,13.23
2017-11-03T10:01:44.594Z,11.97
2017-11-03T10:04:13.052Z,12.50
2017-11-03T10:06:41.313Z,8.73
2017-11-03T10:09:09.569Z,13.67
2017-11-03T10:11:38.222Z,19.87
2017-11-03T10:14:06.472Z,12.40
2017-11-03T10:16:34.752Z,10.90
2017-11-03T10:19:03.211Z,11.80
2017-11-03T10:21:31.480Z,10.43
2017-11-03T10:23:59.754Z,10.77
2017-11-03T10:26:28.123Z,12.60
2017-11-03T10:28:56.371Z,16.70
2017-11-03T10:31:24.677Z,11.33
2017-11-03T10:33:53.962Z,10.73
2017-11-03T10:36:22.281Z,11.10
2017-11-03T10:38:50.620Z,10.47
2017-11-03T10:41:18.933Z,9.53
2017-11-03T10:43:47.423Z,10.93
2017-11-03T10:46:18.924Z,8.90
2017-11-03T10:48:47.573Z,11.50
2017-11-03T10:51:15.952Z,9.33
2017-11-03T10:53:44.262Z,11.80
2017-11-03T10:56:18.685Z,14.70
2017-11-03T10:58:47.058Z,11.53
2017-11-03T11:01:15.389Z,10.17
2017-11-03T11:03:43.890Z,8.60
2017-11-03T11:06:13.091Z,8.90
2017-11-03T11:08:41.353Z,11.70
2017-11-03T11:11:09.604Z,8.70
2017-11-03T11:13:37.914Z,11.80
2017-11-03T11:16:06.368Z,9.20
2017-11-03T11:18:34.873Z,12.07
2017-11-03T11:21:03.884Z,10.70
2017-11-03T11:23:32.141Z,5.60
2017-11-03T11:26:00.390Z,8.67
2017-11-03T11:28:29.021Z,10.53
2017-11-03T11:30:57.264Z,10.40
2017-11-03T11:33:25.885Z,18.83
2017-11-03T11:35:54.130Z,14.77
2017-11-03T11:38:22.726Z,6.03
2017-11-03T11:40:50.989Z,11.27
2017-11-03T11:43:19.599Z,9.27
2017-11-03T11:45:47.853Z,8.73
2017-11-03T11:48:16.125Z,12.10
2017-11-03T11:50:44.520Z,16.87
2017-11-03T11:53:12.778Z,9.23
2017-11-03T11:55:41.056Z,7.87
2017-11-03T11:58:09.316Z,7.00
2017-11-03T12:00:37.564Z,7.00
2017-11-03T12:03:06.009Z,5.70
2017-11-03T12:05:34.677Z,8.43
2017-11-03T12:08:03.149Z,9.57
2017-11-03T12:10:32.146Z,13.83
2017-11-03T12:13:00.533Z,5.00
2017-11-03T12:15:28.804Z,10.30
2017-11-03T12:17:57.076Z,6.37
2017-11-03T12:20:25.345Z,4.70
2017-11-03T12:22:53.602Z,6.23
2017-11-03T12:25:21.900Z,7.77
2017-11-03T12:27:50.152Z,5.90
2017-11-03T12:30:18.471Z,7.50
2017-11-03T12:32:46.739Z,6.17
2017-11-03T12:35:15.696Z,4.80
2017-11-03T12:37:43.984Z,4.97
2017-11-03T12:40:12.220Z,7.03
2017-11-03T12:42:40.704Z,5.60
2017-11-03T12:45:09.369Z,7.63
2017-11-03T12:47:37.622Z,5.70
2017-11-03T12:50:05.878Z,5.57
2017-11-03T12:52:34.130Z,5.20
2017-11-03T12:55:02.938Z,5.83
2017-11-03T12:57:31.188Z,5.20
2017-11-03T12:59:59.453Z,6.27
2017-11-03T13:02:27.717Z,7.33
2017-11-03T13:04:56.561Z,5.83
2017-11-03T13:07:24.914Z,4.90
2017-11-03T13:09:53.235Z,5.60
2017-11-03T13:12:21.474Z,4.87
2017-11-03T13:14:49.739Z,7.03
2017-11-03T13:17:18.009Z,7.50
2017-11-03T13:19:46.275Z,6.97
2017-11-03T13:22:14.948Z,5.80
2017-11-03T13:24:43.596Z,4.70
2017-11-03T13:27:11.836Z,7.53
2017-11-03T13:29:40.363Z,5.50
2017-11-03T13:32:08.595Z,3.73
2017-11-03T13:34:36.860Z,13.50
2017-11-03T13:37:05.513Z,6.43
2017-11-03T13:39:34.518Z,7.30
2017-11-03T13:42:03.182Z,8.20
2017-11-03T13:44:31.444Z,5.37
2017-11-03T13:46:59.675Z,12.20
2017-11-03T13:49:28.096Z,7.13
2017-11-03T13:51:56.481Z,6.17
2017-11-03T13:54:24.731Z,10.07
2017-11-03T13:56:53.297Z,9.10
2017-11-03T13:59:21.548Z,5.13
2017-11-03T14:01:50.394Z,9.90
2017-11-03T14:04:18.654Z,6.47
2017-11-03T14:06:46.889Z,6.73
2017-11-03T14:09:15.549Z,7.77
2017-11-03T14:11:43.952Z,8.53
2017-11-03T14:14:12.616Z,12.67
2017-11-03T14:16:40.872Z,11.00
2017-11-03T14:19:09.149Z,7.77
2017-11-03T14:21:37.395Z,8.50
2017-11-03T14:24:05.647Z,8.70
2017-11-03T14:26:34.348Z,4.73
2017-11-03T14:29:02.609Z,14.50
2017-11-03T14:31:30.881Z,9.50
2017-11-03T14:33:59.559Z,4.67
2017-11-03T14:36:27.842Z,5.30
2017-11-03T14:38:56.484Z,6.03
2017-11-03T14:41:24.763Z,4.80
2017-11-03T14:43:53.042Z,4.20
2017-11-03T14:46:21.425Z,6.37
2017-11-03T14:48:49.672Z,5.23
2017-11-03T14:51:17.978Z,4.40
2017-11-03T14:53:47.001Z,5.07
2017-11-03T14:56:15.671Z,5.03
2017-11-03T14:58:43.930Z,4.30
2017-11-03T15:01:12.239Z,6.90
2017-11-03T15:03:40.488Z,8.90
2017-11-03T15:06:08.976Z,7.10
2017-11-03T15:08:37.294Z,6.90
2017-11-03T15:11:05.916Z,10.97
2017-11-03T15:13:34.161Z,6.73
2017-11-03T15:16:02.457Z,9.20
2017-11-03T15:18:30.747Z,9.07
2017-11-03T15:20:59.034Z,9.50
2017-11-03T15:23:27.269Z,9.20
2017-11-03T15:25:55.515Z,4.93
2017-11-03T15:28:23.770Z,13.80
2017-11-03T15:30:52.060Z,6.87
2017-11-03T15:33:20.306Z,8.63
2017-11-03T15:35:48.562Z,15.00
2017-11-03T15:38:16.863Z,10.53
2017-11-03T15:40:45.865Z,11.80
2017-11-03T15:43:14.533Z,11.00
2017-11-03T15:45:42.824Z,5.03
2017-11-03T15:48:11.064Z,6.70
2017-11-03T15:50:39.588Z,11.23
2017-11-03T15:53:08.117Z,9.93
2017-11-03T15:55:36.372Z,11.37
2017-11-03T15:58:04.624Z,11.10
2017-11-03T16:00:32.900Z,11.10
2017-11-03T16:03:01.154Z,6.20
2017-11-03T16:05:29.464Z,11.90
2017-11-03T16:07:57.760Z,14.83
2017-11-03T16:10:26.006Z,12.97
2017-11-03T16:12:54.578Z,13.97
2017-11-03T16:15:22.864Z,9.90
2017-11-03T16:17:51.126Z,9.03
2017-11-03T16:20:19.505Z,18.73
2017-11-03T16:22:47.778Z,13.07
2017-11-03T16:25:16.043Z,14.50
2017-11-03T16:27:44.334Z,16.53
2017-11-03T16:30:12.623Z,12.17
2017-11-03T16:32:40.936Z,13.80
2017-11-03T16:35:09.605Z,11.63
2017-11-03T16:37:37.874Z,14.93
2017-11-03T16:40:06.526Z,13.90
2017-11-03T16:42:34.841Z,12.23
2017-11-03T16:45:03.088Z,14.83
2017-11-03T16:47:31.362Z,18.77
2017-11-03T16:50:00.483Z,13.67
2017-11-03T16:52:29.142Z,16.43
2017-11-03T16:54:57.456Z,17.93
2017-11-03T16:57:25.726Z,11.80
2017-11-03T16:59:54.025Z,20.80
2017-11-03T17:02:22.524Z,18.00
2017-11-03T17:04:50.768Z,20.97
2017-11-03T17:07:19.188Z,21.90
2017-11-03T17:09:47.476Z,18.40
2017-11-03T17:12:15.729Z,20.80
2017-11-03T17:14:44.005Z,37.03
2017-11-03T17:17:12.346Z,23.80
2017-11-03T17:19:40.651Z,22.93
2017-11-03T17:22:08.936Z,13.43
2017-11-03T17:24:37.203Z,14.77
2017-11-03T17:27:05.446Z,16.17
2017-11-03T17:29:33.727Z,12.50
2017-11-03T17:32:02.375Z,13.27
2017-11-03T17:34:30.676Z,14.93
2017-11-03T17:36:58.932Z,15.83
2017-11-03T17:39:27.188Z,20.70
2017-11-03T17:41:55.460Z,18.80
2017-11-03T17:44:23.776Z,30.63
2017-11-03T17:46:52.777Z,28.93
2017-11-03T17:49:21.004Z,31.33
2017-11-03T17:51:49.308Z,29.90
2017-11-03T17:54:17.582Z,36.73
2017-11-03T17:56:45.864Z,33.70
2017-11-03T17:59:14.159Z,30.20
2017-11-03T18:01:42.412Z,33.90
2017-11-03T18:04:10.727Z,27.50
2017-11-03T18:06:39.022Z,34.40
2017-11-03T18:09:07.256Z,40.67
2017-11-03T18:11:35.920Z,28.30
2017-11-03T18:14:04.211Z,33.03
2017-11-03T18:16:32.464Z,32.20
2017-11-03T18:19:00.713Z,24.53
2017-11-03T18:21:29.007Z,32.10
2017-11-03T18:23:57.255Z,28.20
2017-11-03T18:26:25.512Z,27.53
2017-11-03T18:28:54.942Z,32.13
2017-11-03T18:31:23.186Z,106.73
2017-11-03T18:33:52.337Z,48.50
2017-11-03T18:36:20.594Z,32.50
2017-11-03T18:38:48.849Z,151.63
2017-11-03T18:41:17.152Z,60.77
2017-11-03T18:43:45.579Z,82.03
2017-11-03T18:46:14.252Z,50.23
2017-11-03T18:48:42.528Z,42.73
2017-11-03T18:51:10.891Z,52.10
2017-11-03T18:53:39.500Z,39.90
2017-11-03T18:56:08.996Z,69.13
2017-11-03T18:58:37.492Z,32.33
2017-11-03T19:01:05.769Z,31.10
2017-11-03T19:03:34.043Z,62.50
2017-11-03T19:06:02.805Z,68.90
2017-11-03T19:08:31.046Z,60.93
2017-11-03T19:10:59.578Z,66.43
2017-11-03T19:13:27.993Z,30.47
2017-11-03T19:15:56.318Z,38.90
2017-11-03T19:18:24.608Z,40.90
2017-11-03T19:20:52.902Z,33.37
2017-11-03T19:23:21.157Z,34.63
2017-11-03T19:25:49.407Z,28.67
2017-11-03T19:28:18.138Z,41.10
2017-11-03T19:30:46.394Z,54.83
2017-11-03T19:33:15.492Z,37.63
2017-11-03T19:35:43.805Z,38.57
2017-11-03T19:38:12.069Z,43.30
2017-11-03T19:40:40.770Z,52.97
2017-11-03T19:43:09.028Z,38.03
2017-11-03T19:45:37.696Z,48.47
2017-11-03T19:48:06.021Z,33.60
2017-11-03T19:50:34.305Z,40.63
2017-11-03T19:53:02.616Z,56.93
2017-11-03T19:55:30.961Z,35.77
2017-11-03T19:57:59.285Z,39.67
2017-11-03T20:00:27.596Z,41.20
2017-11-03T20:02:55.940Z,37.03
2017-11-03T20:05:24.683Z,34.03
2017-11-03T20:07:52.961Z,32.07
2017-11-03T20:10:21.232Z,32.57
2017-11-03T20:12:50.807Z,36.90
2017-11-03T20:15:21.068Z,33.03
2017-11-03T20:17:50.489Z,31.63
2017-11-03T20:20:18.930Z,36.73
2017-11-03T20:22:47.832Z,32.83
2017-11-03T20:25:16.221Z,33.40
2017-11-03T20:27:44.551Z,30.50
2017-11-03T20:30:13.009Z,28.97
2017-11-03T20:32:41.481Z,28.47
2017-11-03T20:35:09.800Z,25.30
2017-11-03T20:37:38.097Z,26.10
2017-11-03T20:40:06.332Z,25.57
2017-11-03T20:42:34.649Z,24.60
2017-11-03T20:45:02.956Z,25.80
2017-11-03T20:47:31.295Z,23.50
2017-11-03T20:49:59.582Z,23.73
2017-11-03T20:52:27.965Z,27.43
2017-11-03T20:54:56.232Z,30.27
2017-11-03T20:57:24.536Z,26.97
2017-11-03T20:59:52.817Z,31.37
2017-11-03T21:02:21.176Z,27.67
2017-11-03T21:04:49.475Z,28.33
2017-11-03T21:07:17.793Z,29.47
2017-11-03T21:09:46.144Z,27.70
2017-11-03T21:12:14.722Z,32.20
2017-11-03T21:14:43.504Z,27.67
2017-11-03T21:17:11.749Z,30.27
2017-11-03T21:19:40.109Z,28.17
2017-11-03T21:22:08.432Z,27.53
2017-11-03T21:24:36.717Z,29.83
2017-11-03T21:27:05.088Z,23.63
2017-11-03T21:29:33.366Z,25.67
2017-11-03T21:32:01.635Z,31.73
2017-11-03T21:34:30.267Z,27.40
2017-11-03T21:36:59.177Z,26.53
2017-11-03T21:39:27.558Z,32.00
2017-11-03T21:41:55.940Z,32.00
2017-11-03T21:44:24.192Z,29.47
2017-11-03T21:46:52.817Z,33.40
2017-11-03T21:49:21.117Z,30.67
2017-11-03T21:51:49.368Z,33.30
2017-11-03T21:54:17.624Z,33.20
2017-11-03T21:56:45.954Z,30.63
2017-11-03T21:59:14.196Z,30.13
2017-11-03T22:01:42.461Z,28.20
2017-11-03T22:04:10.735Z,32.50
2017-11-03T22:06:38.997Z,26.57
2017-11-03T22:09:07.247Z,30.63
2017-11-03T22:11:36.054Z,31.03
2017-11-03T22:14:04.284Z,29.20
2017-11-03T22:16:32.564Z,28.83
2017-11-03T22:19:00.879Z,27.20
2017-11-03T22:21:29.163Z,31.93
2017-11-03T22:23:57.405Z,30.53
2017-11-03T22:26:26.105Z,31.07
2017-11-03T22:28:54.348Z,31.00
2017-11-03T22:31:22.599Z,39.63
2017-11-03T22:33:50.877Z,28.57
2017-11-03T22:36:19.124Z,37.60
2017-11-03T22:38:47.369Z,34.43
2017-11-03T22:41:16.094Z,29.77
2017-11-03T22:43:44.337Z,32.70
2017-11-03T22:46:13.713Z,33.50
2017-11-03T22:48:42.118Z,27.10
2017-11-03T22:51:10.361Z,30.10
2017-11-03T22:53:38.630Z,26.90
2017-11-03T22:56:06.898Z,30.70
2017-11-03T22:58:35.137Z,33.90
2017-11-03T23:01:04.000Z,32.20
2017-11-03T23:03:33.437Z,36.83
2017-11-03T23:06:01.754Z,29.70
2017-11-03T23:08:29.997Z,26.97
2017-11-03T23:10:58.337Z,39.03
2017-11-03T23:13:27.100Z,29.77
2017-11-03T23:15:55.617Z,26.97
2017-11-03T23:18:24.044Z,29.93
2017-11-03T23:20:52.381Z,32.40
2017-11-03T23:23:20.657Z,32.50
2017-11-03T23:25:48.949Z,35.00
2017-11-03T23:28:17.308Z,29.07
2017-11-03T23:30:45.685Z,35.20
2017-11-03T23:33:14.325Z,38.33
2017-11-03T23:35:42.564Z,22.57
2017-11-03T23:38:11.194Z,35.20
2017-11-03T23:40:39.803Z,22.63
2017-11-03T23:43:08.455Z,32.03
2017-11-03T23:45:36.934Z,30.60
2017-11-03T23:48:05.173Z,31.33
2017-11-03T23:50:33.425Z,34.67
2017-11-03T23:53:02.284Z,37.60
2017-11-03T23:55:30.530Z,31.57
2017-11-03T23:57:58.803Z,36.17
